Historyczne dane pomiarowe

Dodano dane terminowe – wersja testowa.

Dane z okresu 1951-2019

Wersja bazy: 1.34 [2019-03-16, lista zmian], aktualizacja planowana na 2019-04-15

Dane meteo z obszaru Polski uzyskane na podstawie danych udostępnionych przez Instytut Meteorologii i Gospodarki Wodnej – Państwowy Instytut Badawczy.

 

Wybierz Datę:    

       

TemperaturaWilgotnośćWiatrCiśnienieOpadyŚniegCzas trwania zjawisk
 Stacja t tx tn tng RH VA  wxwx mslp ppp RRR   cm mm wxwxwxwxwxwxwx
1956-10-11 8.0 9.3 4.6 3.4 92.8- 8.0 4.0---- 1.3------------
1956-10-12 9.5 11.8 8.5 7.4 80.8- 7.7 7.3---- 0.5------------
1956-10-13 7.8 10.0 6.4 6.5 82.5- 7.0 9.7---- 17.7------------
1956-10-14 5.9 9.1 3.7 0.9 79.3- 3.0 7.3---- 0.5------------
1956-10-15 5.6 8.7 4.7 2.4 81.5- 3.0 6.3---- 0.5------------
1956-10-16 3.4 8.7 0.9 0.1 85.0- 4.3 2.0---- 0.0------------
1956-10-17 4.2 11.1 -0.6 -4.8 85.5- 3.0 0.7---- 0.0------------
1956-10-18 7.2 8.8 3.1 -0.9 88.8- 7.7 3.0---- 0.7------------
1956-10-19 9.3 11.6 7.7 7.8 95.0- 7.3 5.3---- 1.6------------
1956-10-20 8.2 9.9 6.1 5.0 87.5- 7.3 4.3---- 0.0------------
1956-10-21 11.0 12.5 8.3 7.4 87.0- 8.0 4.0---- 0.0------------
1956-10-22 10.9 12.4 10.4 9.6 74.8- 7.7 7.0---- 0.0------------
1956-10-23 9.1 11.0 8.7 8.7 89.3- 8.0 5.0---- 0.0------------
1956-10-24 9.9 11.7 7.8 7.2 89.0- 7.7 3.7---- 0.0------------
1956-10-25 9.9 12.0 8.6 6.6 90.3- 4.3 3.3---- 0.0------------
1956-10-26 7.5 10.3 6.7 4.5 91.3- 8.0 2.3---- 1.6------------
1956-10-27 6.7 7.2 5.9 5.5 98.8- 8.0 4.3---- 0.3------------
1956-10-28 4.5 7.0 3.5 5.4 96.3- 8.0 9.0---- 14.7------------
1956-10-29 -3.1 3.7 -4.0 -2.2 93.3- 8.0 11.3---- 2.2-- 2---------
1956-10-30 -6.8 -3.5 -9.2 -9.6 79.3- 4.3 6.7---- 0.0-- 3---------
1956-10-31 -5.0 -1.8-14.2-20.5 78.5- 1.7 4.3---- 2.2-- 3---------
1956-11-01 0.6 2.7 -2.2 -3.1 96.5- 8.0 5.0---- 6.3-- 5---------
1956-11-02 -0.8 2.2 -4.4 -7.7 91.0- 1.0 2.7---- 0.0-- 3---------
1956-11-03 -0.1 2.2 -2.8 -4.9 79.0- 5.3 1.3---- 0.0-- 3---------
1956-11-04 -0.6 2.7 -2.7 -5.2 79.5- 4.0 4.7---- 0.0-- 2---------
1956-11-05 0.3 3.9 -2.2 -4.9 90.0- 7.3 7.3---- 4.9-- 2---------
1956-11-06 -0.2 1.2 -1.4 -2.7 89.5- 3.7 6.3---- 0.5-- 6---------
1956-11-07 -4.5 -0.3 -5.8 -6.8 72.8- 3.3 6.3---- 0.0-- 9---------
1956-11-08 -5.4 -2.5 -9.1-12.0 74.5- 2.3 4.3---- 0.0-- 6---------
1956-11-09 -6.4 -3.7-11.8-15.5 80.8- 5.7 2.7---- 0.0-- 6---------
188.7 ms

 

Źródłem pochodzenia danych jest Instytut Meteorologii i Gospodarki Wodnej – Państwowy Instytut Badawczy. Dane Instytutu Meteorologii i Gospodarki Wodnej – Państwowego Instytutu Badawczego zostały przetworzone.

Dane źródłowe można odnaleźć na stronie https://dane.imgw.pl